TVS1415 LGRP-LKTB
Flight info
| Callsign | TVS1415 |
|---|---|
| Flight time | 2h 44m |
| Altitude | 34000 |
| Route | VANES UM601 ADESO UN133 PEREN UL863 EVIVI L863 EDIKA/N0453F360 L863 OKANA DCT PARAK DCT PATAK DCT ABITU/N0400F240 P41 MAVOR |
| Aircraft | B738/M-SDE3FGHIJ1RWXY/LB1 |
Departure
| Time | 2026-04-29 15:34 |
|---|---|
| Airport | Rhodes International Airport "Diagoras" (LGRP) |
Arrival
| Time | 2026-04-29 18:18 |
|---|---|
| Airport | Brno-Tuřany Airport (LKTB) |
| Time | Latitude | Longitude | Altitude | Speed | Heading |
|---|---|---|---|---|---|
| 2026-04-29 15:13 | 36.40349 | 28.09092 | 27 ft | 0 kts | 160° |
| 2026-04-29 15:24 | 36.40351 | 28.09091 | 27 ft | 2 kts | 160° |
| 2026-04-29 15:25 | 36.40375 | 28.09080 | 27 ft | 3 kts | 160° |
| 2026-04-29 15:25 | 36.40398 | 28.09065 | 27 ft | 4 kts | 128° |
| 2026-04-29 15:25 | 36.40407 | 28.09037 | 27 ft | 4 kts | 84° |
| 2026-04-29 15:25 | 36.40403 | 28.09010 | 27 ft | 4 kts | 77° |
| 2026-04-29 15:26 | 36.40401 | 28.09001 | 27 ft | 0 kts | 77° |
| 2026-04-29 15:27 | 36.40401 | 28.09002 | 27 ft | 0 kts | 77° |
| 2026-04-29 15:28 | 36.40402 | 28.09004 | 27 ft | 1 kts | 77° |
| 2026-04-29 15:28 | 36.40404 | 28.09016 | 27 ft | 4 kts | 75° |
| 2026-04-29 15:28 | 36.40432 | 28.09112 | 27 ft | 12 kts | 70° |
| 2026-04-29 15:28 | 36.40460 | 28.09210 | 27 ft | 12 kts | 70° |
| 2026-04-29 15:29 | 36.40485 | 28.09293 | 27 ft | 9 kts | 70° |
| 2026-04-29 15:29 | 36.40568 | 28.09397 | 27 ft | 8 kts | 42° |
| 2026-04-29 15:30 | 36.40615 | 28.09505 | 27 ft | 9 kts | 69° |
| 2026-04-29 15:30 | 36.40647 | 28.09611 | 27 ft | 16 kts | 70° |
| 2026-04-29 15:30 | 36.40686 | 28.09748 | 27 ft | 17 kts | 70° |
| 2026-04-29 15:30 | 36.40725 | 28.09883 | 27 ft | 16 kts | 70° |
| 2026-04-29 15:31 | 36.40775 | 28.10053 | 27 ft | 15 kts | 70° |
| 2026-04-29 15:31 | 36.40799 | 28.10136 | 27 ft | 15 kts | 70° |
| 2026-04-29 15:31 | 36.40835 | 28.10255 | 27 ft | 14 kts | 70° |
| 2026-04-29 15:31 | 36.40876 | 28.10395 | 27 ft | 9 kts | 69° |
| 2026-04-29 15:32 | 36.40901 | 28.10433 | 27 ft | 8 kts | 27° |
| 2026-04-29 15:32 | 36.40957 | 28.10422 | 27 ft | 9 kts | 334° |
| 2026-04-29 15:32 | 36.41001 | 28.10363 | 28 ft | 11 kts | 292° |
| 2026-04-29 15:32 | 36.41019 | 28.10278 | 27 ft | 7 kts | 279° |
| 2026-04-29 15:33 | 36.41016 | 28.10248 | 26 ft | 0 kts | 250° |
| 2026-04-29 15:33 | 36.41014 | 28.10242 | 26 ft | 8 kts | 250° |
| 2026-04-29 15:33 | 36.40899 | 28.09848 | 31 ft | 89 kts | 250° |
| 2026-04-29 15:33 | 36.40602 | 28.08835 | 29 ft | 158 kts | 250° |
| 2026-04-29 15:34 | 36.40206 | 28.07445 | 662 ft | 170 kts | 251° |
| 2026-04-29 15:34 | 36.39886 | 28.06014 | 1513 ft | 180 kts | 266° |
| 2026-04-29 15:34 | 36.39841 | 28.04396 | 2086 ft | 195 kts | 270° |
| 2026-04-29 15:34 | 36.39766 | 28.02643 | 2578 ft | 211 kts | 267° |
| 2026-04-29 15:35 | 36.39626 | 28.00797 | 2969 ft | 228 kts | 266° |
| 2026-04-29 15:35 | 36.39468 | 27.98728 | 3195 ft | 255 kts | 265° |
| 2026-04-29 15:35 | 36.39304 | 27.96474 | 3770 ft | 266 kts | 265° |
| 2026-04-29 15:35 | 36.39141 | 27.94158 | 4564 ft | 271 kts | 265° |
| 2026-04-29 15:36 | 36.39053 | 27.91816 | 5429 ft | 273 kts | 274° |
| 2026-04-29 15:36 | 36.39575 | 27.89562 | 6242 ft | 274 kts | 295° |
| 2026-04-29 15:36 | 36.40385 | 27.87407 | 7027 ft | 277 kts | 296° |
| 2026-04-29 15:36 | 36.41214 | 27.85249 | 7853 ft | 278 kts | 296° |
| 2026-04-29 15:37 | 36.42045 | 27.83079 | 8666 ft | 279 kts | 296° |
| 2026-04-29 15:37 | 36.42900 | 27.80863 | 8924 ft | 303 kts | 296° |
| 2026-04-29 15:37 | 36.43804 | 27.78481 | 9817 ft | 296 kts | 295° |
| 2026-04-29 15:37 | 36.44653 | 27.76210 | 10901 ft | 289 kts | 295° |
| 2026-04-29 15:38 | 36.45507 | 27.73862 | 11198 ft | 310 kts | 294° |
| 2026-04-29 15:38 | 36.46417 | 27.71335 | 11386 ft | 332 kts | 294° |
| 2026-04-29 15:38 | 36.47386 | 27.68634 | 11565 ft | 352 kts | 294° |
| 2026-04-29 15:38 | 36.48398 | 27.65813 | 12022 ft | 362 kts | 294° |
| 2026-04-29 15:39 | 36.49427 | 27.62944 | 12694 ft | 364 kts | 294° |
| 2026-04-29 15:39 | 36.50460 | 27.60067 | 13438 ft | 366 kts | 294° |
| 2026-04-29 15:39 | 36.50796 | 27.59131 | 13665 ft | 366 kts | 294° |
| 2026-04-29 15:39 | 36.50939 | 27.58733 | 13759 ft | 367 kts | 294° |
| 2026-04-29 15:40 | 36.51967 | 27.55868 | 14358 ft | 370 kts | 294° |
| 2026-04-29 15:40 | 36.53019 | 27.52937 | 14958 ft | 373 kts | 294° |
| 2026-04-29 15:40 | 36.54079 | 27.49980 | 15564 ft | 376 kts | 294° |
| 2026-04-29 15:40 | 36.55146 | 27.47001 | 16170 ft | 378 kts | 294° |
| 2026-04-29 15:41 | 36.56220 | 27.43999 | 16753 ft | 381 kts | 294° |
| 2026-04-29 15:41 | 36.57303 | 27.40971 | 17323 ft | 385 kts | 294° |
| 2026-04-29 15:41 | 36.58393 | 27.37919 | 17887 ft | 388 kts | 294° |
| 2026-04-29 15:41 | 36.59493 | 27.34836 | 18427 ft | 391 kts | 293° |
| 2026-04-29 15:42 | 36.60600 | 27.31733 | 18917 ft | 394 kts | 294° |
| 2026-04-29 15:42 | 36.61714 | 27.28604 | 19426 ft | 396 kts | 293° |
| 2026-04-29 15:42 | 36.62835 | 27.25453 | 19916 ft | 399 kts | 293° |
| 2026-04-29 15:42 | 36.63947 | 27.22324 | 20404 ft | 402 kts | 293° |
| 2026-04-29 15:43 | 36.65079 | 27.19134 | 20869 ft | 405 kts | 293° |
| 2026-04-29 15:43 | 36.66219 | 27.15920 | 21361 ft | 407 kts | 294° |
| 2026-04-29 15:43 | 36.67364 | 27.12688 | 21844 ft | 409 kts | 294° |
| 2026-04-29 15:43 | 36.68514 | 27.09439 | 22319 ft | 411 kts | 293° |
| 2026-04-29 15:44 | 36.69670 | 27.06170 | 22753 ft | 414 kts | 294° |
| 2026-04-29 15:44 | 36.70832 | 27.02879 | 23168 ft | 417 kts | 293° |
| 2026-04-29 15:44 | 36.71450 | 27.01128 | 23383 ft | 419 kts | 293° |
| 2026-04-29 15:45 | 36.72624 | 26.97797 | 23763 ft | 421 kts | 293° |
| 2026-04-29 15:45 | 36.73802 | 26.94450 | 24128 ft | 423 kts | 293° |
| 2026-04-29 15:45 | 36.74987 | 26.91083 | 24479 ft | 425 kts | 293° |
| 2026-04-29 15:45 | 36.76178 | 26.87692 | 24814 ft | 428 kts | 293° |
| 2026-04-29 15:46 | 36.77368 | 26.84351 | 25275 ft | 426 kts | 296° |
| 2026-04-29 15:46 | 36.78958 | 26.81260 | 25746 ft | 425 kts | 310° |
| 2026-04-29 15:46 | 36.81112 | 26.78726 | 26102 ft | 428 kts | 322° |
| 2026-04-29 15:46 | 36.83643 | 26.76748 | 26409 ft | 432 kts | 330° |
| 2026-04-29 15:47 | 36.86314 | 26.74989 | 26667 ft | 436 kts | 331° |
| 2026-04-29 15:47 | 36.89008 | 26.73217 | 26963 ft | 438 kts | 331° |
| 2026-04-29 15:47 | 36.91707 | 26.71433 | 27307 ft | 439 kts | 331° |
| 2026-04-29 15:47 | 36.94411 | 26.69632 | 27600 ft | 441 kts | 330° |
| 2026-04-29 15:48 | 36.97119 | 26.67816 | 27918 ft | 443 kts | 330° |
| 2026-04-29 15:48 | 36.99838 | 26.65983 | 28225 ft | 444 kts | 330° |
| 2026-04-29 15:48 | 37.02567 | 26.64136 | 28449 ft | 448 kts | 330° |
| 2026-04-29 15:48 | 37.05311 | 26.62277 | 28724 ft | 449 kts | 330° |
| 2026-04-29 15:49 | 37.08063 | 26.60408 | 28981 ft | 452 kts | 330° |
| 2026-04-29 15:49 | 37.10830 | 26.58528 | 29271 ft | 453 kts | 330° |
| 2026-04-29 15:49 | 37.11847 | 26.57836 | 29429 ft | 452 kts | 330° |
| 2026-04-29 15:50 | 37.14608 | 26.55959 | 29867 ft | 450 kts | 330° |
| 2026-04-29 15:50 | 37.17363 | 26.54084 | 30182 ft | 450 kts | 330° |
| 2026-04-29 15:50 | 37.20113 | 26.52211 | 30479 ft | 450 kts | 330° |
| 2026-04-29 15:50 | 37.22860 | 26.50338 | 30822 ft | 448 kts | 330° |
| 2026-04-29 15:51 | 37.25593 | 26.48474 | 31189 ft | 446 kts | 330° |
| 2026-04-29 15:51 | 37.28315 | 26.46615 | 31535 ft | 444 kts | 330° |
| 2026-04-29 15:51 | 37.31027 | 26.44762 | 31837 ft | 444 kts | 330° |
| 2026-04-29 15:51 | 37.33737 | 26.42908 | 32132 ft | 443 kts | 330° |
| 2026-04-29 15:52 | 37.36436 | 26.41061 | 32454 ft | 441 kts | 330° |
| 2026-04-29 15:52 | 37.39090 | 26.39243 | 32775 ft | 440 kts | 330° |
| 2026-04-29 15:52 | 37.41774 | 26.37403 | 33127 ft | 438 kts | 330° |
| 2026-04-29 15:52 | 37.44438 | 26.35575 | 33490 ft | 435 kts | 330° |
| 2026-04-29 15:53 | 37.47095 | 26.33750 | 33768 ft | 435 kts | 330° |
| 2026-04-29 15:53 | 37.49748 | 26.31926 | 34005 ft | 435 kts | 330° |
| 2026-04-29 15:53 | 37.52416 | 26.30091 | 34016 ft | 439 kts | 330° |
| 2026-04-29 15:54 | 37.57776 | 26.26399 | 34026 ft | 438 kts | 329° |
| 2026-04-29 15:54 | 37.60443 | 26.24560 | 34016 ft | 434 kts | 329° |
| 2026-04-29 15:55 | 37.64362 | 26.21855 | 34034 ft | 432 kts | 329° |
| 2026-04-29 15:55 | 37.69627 | 26.18216 | 34043 ft | 431 kts | 329° |
| 2026-04-29 15:56 | 37.74886 | 26.14574 | 34039 ft | 431 kts | 329° |
| 2026-04-29 15:56 | 37.80150 | 26.10923 | 34044 ft | 432 kts | 329° |
| 2026-04-29 15:57 | 37.85417 | 26.07264 | 34044 ft | 432 kts | 329° |
| 2026-04-29 15:57 | 37.90687 | 26.03597 | 34058 ft | 433 kts | 329° |
| 2026-04-29 15:58 | 37.95963 | 25.99920 | 34045 ft | 433 kts | 329° |
| 2026-04-29 15:58 | 38.01212 | 25.96255 | 34043 ft | 434 kts | 329° |
| 2026-04-29 15:59 | 38.06498 | 25.92559 | 34045 ft | 434 kts | 329° |
| 2026-04-29 15:59 | 38.09136 | 25.90713 | 34044 ft | 434 kts | 329° |
| 2026-04-29 16:00 | 38.13057 | 25.87964 | 34046 ft | 434 kts | 329° |
| 2026-04-29 16:00 | 38.18337 | 25.84259 | 34055 ft | 433 kts | 329° |
| 2026-04-29 16:01 | 38.23580 | 25.80572 | 34048 ft | 433 kts | 329° |
| 2026-04-29 16:01 | 38.28854 | 25.76859 | 34046 ft | 433 kts | 329° |
| 2026-04-29 16:02 | 38.34123 | 25.73142 | 34049 ft | 433 kts | 329° |
| 2026-04-29 16:02 | 38.39381 | 25.69426 | 34049 ft | 432 kts | 329° |
| 2026-04-29 16:03 | 38.44640 | 25.65704 | 34051 ft | 432 kts | 329° |
| 2026-04-29 16:03 | 38.49856 | 25.62006 | 34052 ft | 432 kts | 329° |
| 2026-04-29 16:04 | 38.55103 | 25.58280 | 34060 ft | 431 kts | 329° |
| 2026-04-29 16:04 | 38.57730 | 25.56412 | 34059 ft | 432 kts | 329° |
| 2026-04-29 16:05 | 38.61612 | 25.53649 | 34051 ft | 432 kts | 329° |
| 2026-04-29 16:05 | 38.66824 | 25.49934 | 34055 ft | 431 kts | 329° |
| 2026-04-29 16:06 | 38.72061 | 25.46194 | 34059 ft | 431 kts | 329° |
| 2026-04-29 16:06 | 38.77287 | 25.42456 | 34055 ft | 430 kts | 329° |
| 2026-04-29 16:07 | 38.82509 | 25.38714 | 34057 ft | 429 kts | 329° |
| 2026-04-29 16:07 | 38.87716 | 25.34978 | 34056 ft | 429 kts | 329° |
| 2026-04-29 16:08 | 38.92877 | 25.31267 | 34067 ft | 428 kts | 329° |
| 2026-04-29 16:08 | 38.98069 | 25.27529 | 34056 ft | 427 kts | 329° |
| 2026-04-29 16:09 | 39.03250 | 25.23791 | 34065 ft | 427 kts | 329° |
| 2026-04-29 16:09 | 39.05837 | 25.21923 | 34052 ft | 426 kts | 329° |
| 2026-04-29 16:10 | 39.09730 | 25.19108 | 34064 ft | 426 kts | 329° |
| 2026-04-29 16:10 | 39.14857 | 25.15396 | 34065 ft | 426 kts | 329° |
| 2026-04-29 16:11 | 39.20021 | 25.11650 | 34065 ft | 426 kts | 328° |
| 2026-04-29 16:11 | 39.25181 | 25.07902 | 34055 ft | 425 kts | 328° |
| 2026-04-29 16:12 | 39.30333 | 25.04152 | 34054 ft | 425 kts | 328° |
| 2026-04-29 16:12 | 39.35451 | 25.00420 | 34049 ft | 425 kts | 328° |
| 2026-04-29 16:13 | 39.40604 | 24.96658 | 34051 ft | 425 kts | 328° |
| 2026-04-29 16:13 | 39.45755 | 24.92890 | 34069 ft | 426 kts | 328° |
| 2026-04-29 16:14 | 39.50911 | 24.89111 | 34060 ft | 426 kts | 328° |
| 2026-04-29 16:14 | 39.53483 | 24.87224 | 34059 ft | 426 kts | 328° |
| 2026-04-29 16:15 | 39.57208 | 24.84488 | 34068 ft | 425 kts | 328° |
| 2026-04-29 16:15 | 39.62324 | 24.80725 | 34062 ft | 425 kts | 328° |
| 2026-04-29 16:16 | 39.67468 | 24.76935 | 34074 ft | 425 kts | 328° |
| 2026-04-29 16:16 | 39.72607 | 24.73142 | 34061 ft | 425 kts | 328° |
| 2026-04-29 16:17 | 39.77742 | 24.69345 | 34062 ft | 425 kts | 328° |
| 2026-04-29 16:17 | 39.82876 | 24.65542 | 34063 ft | 424 kts | 328° |
| 2026-04-29 16:18 | 39.87993 | 24.61746 | 34065 ft | 423 kts | 328° |
| 2026-04-29 16:18 | 39.93111 | 24.57942 | 34077 ft | 423 kts | 328° |
| 2026-04-29 16:19 | 39.98220 | 24.54138 | 34060 ft | 423 kts | 328° |
| 2026-04-29 16:19 | 40.00733 | 24.52264 | 34061 ft | 422 kts | 328° |
| 2026-04-29 16:20 | 40.04579 | 24.49394 | 34064 ft | 422 kts | 328° |
| 2026-04-29 16:20 | 40.09669 | 24.45589 | 34064 ft | 421 kts | 328° |
| 2026-04-29 16:21 | 40.14754 | 24.41782 | 34068 ft | 421 kts | 328° |
| 2026-04-29 16:21 | 40.19831 | 24.37974 | 34070 ft | 420 kts | 327° |
| 2026-04-29 16:22 | 40.24903 | 24.34163 | 34067 ft | 420 kts | 327° |
| 2026-04-29 16:22 | 40.29975 | 24.30344 | 34069 ft | 420 kts | 327° |
| 2026-04-29 16:23 | 40.35010 | 24.26549 | 34065 ft | 421 kts | 327° |
| 2026-04-29 16:23 | 40.40082 | 24.22717 | 34076 ft | 421 kts | 327° |
| 2026-04-29 16:24 | 40.45153 | 24.18880 | 34070 ft | 421 kts | 327° |
| 2026-04-29 16:24 | 40.47690 | 24.16958 | 34067 ft | 421 kts | 327° |
| 2026-04-29 16:25 | 40.51421 | 24.14128 | 34067 ft | 421 kts | 327° |
| 2026-04-29 16:25 | 40.56493 | 24.10276 | 34066 ft | 421 kts | 327° |
| 2026-04-29 16:26 | 40.61527 | 24.06445 | 34064 ft | 421 kts | 327° |
| 2026-04-29 16:26 | 40.66588 | 24.02586 | 34081 ft | 420 kts | 327° |
| 2026-04-29 16:27 | 40.71641 | 23.98728 | 34067 ft | 420 kts | 327° |
| 2026-04-29 16:27 | 40.76684 | 23.94870 | 34068 ft | 418 kts | 327° |
| 2026-04-29 16:28 | 40.81713 | 23.91016 | 34066 ft | 417 kts | 327° |
| 2026-04-29 16:28 | 40.86725 | 23.87168 | 34061 ft | 416 kts | 327° |
| 2026-04-29 16:29 | 40.91691 | 23.83348 | 34072 ft | 415 kts | 327° |
| 2026-04-29 16:29 | 40.94186 | 23.81427 | 34068 ft | 415 kts | 327° |
| 2026-04-29 16:30 | 40.97699 | 23.78719 | 34055 ft | 414 kts | 327° |
| 2026-04-29 16:30 | 41.02662 | 23.74887 | 34050 ft | 412 kts | 327° |
| 2026-04-29 16:31 | 41.07607 | 23.71062 | 34056 ft | 411 kts | 327° |
| 2026-04-29 16:31 | 41.12543 | 23.67237 | 34077 ft | 411 kts | 326° |
| 2026-04-29 16:32 | 41.17445 | 23.63432 | 34062 ft | 411 kts | 326° |
| 2026-04-29 16:32 | 41.22384 | 23.59591 | 34042 ft | 412 kts | 326° |
| 2026-04-29 16:33 | 41.29805 | 23.53807 | 34059 ft | 413 kts | 326° |
| 2026-04-29 16:33 | 41.34756 | 23.49940 | 34058 ft | 413 kts | 326° |
| 2026-04-29 16:34 | 41.39711 | 23.46065 | 34044 ft | 414 kts | 326° |
| 2026-04-29 16:34 | 41.40229 | 23.45667 | 34047 ft | 414 kts | 327° |
| 2026-04-29 16:35 | 41.45366 | 23.42158 | 34040 ft | 416 kts | 330° |
| 2026-04-29 16:35 | 41.50548 | 23.38856 | 34046 ft | 415 kts | 330° |
| 2026-04-29 16:36 | 41.55782 | 23.35494 | 34044 ft | 415 kts | 330° |
| 2026-04-29 16:36 | 41.60966 | 23.32120 | 34053 ft | 414 kts | 330° |
| 2026-04-29 16:37 | 41.66138 | 23.28732 | 34050 ft | 414 kts | 330° |
| 2026-04-29 16:37 | 41.70431 | 23.25912 | 34052 ft | 413 kts | 330° |
| 2026-04-29 16:38 | 41.76467 | 23.21942 | 34038 ft | 413 kts | 330° |
| 2026-04-29 16:38 | 41.81619 | 23.18547 | 34041 ft | 413 kts | 330° |
| 2026-04-29 16:39 | 41.86763 | 23.15149 | 34058 ft | 412 kts | 329° |
| 2026-04-29 16:40 | 41.91929 | 23.11733 | 34049 ft | 412 kts | 329° |
| 2026-04-29 16:40 | 41.97063 | 23.08332 | 34021 ft | 411 kts | 329° |
| 2026-04-29 16:41 | 42.02182 | 23.04935 | 34030 ft | 410 kts | 329° |
| 2026-04-29 16:41 | 42.07252 | 23.01564 | 34034 ft | 409 kts | 329° |
| 2026-04-29 16:42 | 42.12341 | 22.98173 | 34039 ft | 407 kts | 329° |
| 2026-04-29 16:42 | 42.17414 | 22.94786 | 34031 ft | 407 kts | 329° |
| 2026-04-29 16:43 | 42.22485 | 22.91395 | 34045 ft | 407 kts | 329° |
| 2026-04-29 16:43 | 42.27532 | 22.88015 | 34067 ft | 407 kts | 329° |
| 2026-04-29 16:44 | 42.32609 | 22.84606 | 34051 ft | 407 kts | 329° |
| 2026-04-29 16:44 | 42.33932 | 22.83716 | 34050 ft | 407 kts | 329° |
| 2026-04-29 16:45 | 42.39005 | 22.80300 | 34050 ft | 407 kts | 329° |
| 2026-04-29 16:45 | 42.44038 | 22.76905 | 34061 ft | 406 kts | 328° |
| 2026-04-29 16:46 | 42.49093 | 22.73488 | 34058 ft | 406 kts | 328° |
| 2026-04-29 16:46 | 42.54132 | 22.70076 | 34072 ft | 404 kts | 328° |
| 2026-04-29 16:47 | 42.59157 | 22.66668 | 34064 ft | 403 kts | 328° |
| 2026-04-29 16:47 | 42.64173 | 22.63258 | 34069 ft | 403 kts | 328° |
| 2026-04-29 16:48 | 42.69156 | 22.59863 | 34070 ft | 403 kts | 328° |
| 2026-04-29 16:48 | 42.74173 | 22.56438 | 34080 ft | 404 kts | 328° |
| 2026-04-29 16:49 | 42.79202 | 22.53000 | 34077 ft | 405 kts | 328° |
| 2026-04-29 16:49 | 42.80393 | 22.52185 | 34071 ft | 405 kts | 328° |
| 2026-04-29 16:50 | 42.85433 | 22.48733 | 34076 ft | 406 kts | 328° |
| 2026-04-29 16:50 | 42.90498 | 22.45288 | 34076 ft | 407 kts | 328° |
| 2026-04-29 16:51 | 42.95575 | 22.41838 | 34110 ft | 408 kts | 328° |
| 2026-04-29 16:51 | 43.00670 | 22.38370 | 34097 ft | 409 kts | 328° |
| 2026-04-29 16:52 | 43.05725 | 22.34920 | 34087 ft | 408 kts | 328° |
| 2026-04-29 16:52 | 43.10801 | 22.31448 | 34084 ft | 407 kts | 328° |
| 2026-04-29 16:53 | 43.15852 | 22.27986 | 34082 ft | 405 kts | 328° |
| 2026-04-29 16:53 | 43.20890 | 22.24525 | 34114 ft | 404 kts | 328° |
| 2026-04-29 16:54 | 43.25911 | 22.21071 | 34123 ft | 404 kts | 328° |
| 2026-04-29 16:54 | 43.27137 | 22.20226 | 34097 ft | 404 kts | 328° |
| 2026-04-29 16:55 | 43.32151 | 22.16768 | 34101 ft | 403 kts | 328° |
| 2026-04-29 16:55 | 43.37154 | 22.13311 | 34109 ft | 403 kts | 328° |
| 2026-04-29 16:56 | 43.42162 | 22.09844 | 34106 ft | 403 kts | 328° |
| 2026-04-29 16:56 | 43.47127 | 22.06401 | 34108 ft | 402 kts | 328° |
| 2026-04-29 16:57 | 43.52119 | 22.02933 | 34109 ft | 401 kts | 328° |
| 2026-04-29 16:57 | 43.57098 | 21.99467 | 34118 ft | 401 kts | 328° |
| 2026-04-29 16:58 | 43.62073 | 21.95997 | 34164 ft | 401 kts | 328° |
| 2026-04-29 16:58 | 43.67021 | 21.92539 | 34142 ft | 401 kts | 328° |
| 2026-04-29 16:59 | 43.71997 | 21.89056 | 34131 ft | 401 kts | 327° |
| 2026-04-29 16:59 | 43.73211 | 21.88206 | 34135 ft | 401 kts | 327° |
| 2026-04-29 17:00 | 43.78178 | 21.84721 | 34145 ft | 400 kts | 327° |
| 2026-04-29 17:00 | 43.83109 | 21.81254 | 34144 ft | 400 kts | 327° |
| 2026-04-29 17:01 | 43.88065 | 21.77764 | 34151 ft | 400 kts | 327° |
| 2026-04-29 17:01 | 43.93016 | 21.74271 | 34150 ft | 399 kts | 327° |
| 2026-04-29 17:02 | 43.97926 | 21.70801 | 34160 ft | 398 kts | 327° |
| 2026-04-29 17:02 | 44.02864 | 21.67303 | 34156 ft | 398 kts | 327° |
| 2026-04-29 17:03 | 44.07798 | 21.63802 | 34202 ft | 398 kts | 327° |
| 2026-04-29 17:03 | 44.12737 | 21.60292 | 34158 ft | 399 kts | 327° |
| 2026-04-29 17:04 | 44.17673 | 21.56775 | 34163 ft | 398 kts | 327° |
| 2026-04-29 17:04 | 44.18774 | 21.55990 | 34161 ft | 398 kts | 327° |
| 2026-04-29 17:05 | 44.23691 | 21.52484 | 34174 ft | 396 kts | 327° |
| 2026-04-29 17:05 | 44.28596 | 21.48974 | 34165 ft | 396 kts | 327° |
| 2026-04-29 17:06 | 44.33502 | 21.45457 | 34174 ft | 397 kts | 327° |
| 2026-04-29 17:06 | 44.38376 | 21.41956 | 34186 ft | 397 kts | 327° |
| 2026-04-29 17:07 | 44.42461 | 21.39019 | 34171 ft | 397 kts | 327° |
| 2026-04-29 17:07 | 44.48199 | 21.34884 | 34165 ft | 397 kts | 327° |
| 2026-04-29 17:08 | 44.53110 | 21.31338 | 34163 ft | 397 kts | 327° |
| 2026-04-29 17:08 | 44.57981 | 21.27815 | 34164 ft | 397 kts | 327° |
| 2026-04-29 17:09 | 44.62881 | 21.24264 | 34165 ft | 396 kts | 326° |
| 2026-04-29 17:09 | 44.64145 | 21.23346 | 34158 ft | 396 kts | 326° |
| 2026-04-29 17:10 | 44.69020 | 21.19805 | 34155 ft | 394 kts | 327° |
| 2026-04-29 17:10 | 44.73850 | 21.16289 | 34163 ft | 393 kts | 326° |
| 2026-04-29 17:11 | 44.78702 | 21.12750 | 34155 ft | 392 kts | 326° |
| 2026-04-29 17:11 | 44.83543 | 21.09213 | 34157 ft | 392 kts | 326° |
| 2026-04-29 17:12 | 44.88380 | 21.05671 | 34163 ft | 392 kts | 326° |
| 2026-04-29 17:12 | 44.91581 | 21.03324 | 34159 ft | 392 kts | 326° |
| 2026-04-29 17:13 | 44.98018 | 20.98594 | 34162 ft | 392 kts | 326° |
| 2026-04-29 17:13 | 45.02858 | 20.95030 | 34164 ft | 393 kts | 326° |
| 2026-04-29 17:14 | 45.07705 | 20.91455 | 34153 ft | 393 kts | 326° |
| 2026-04-29 17:14 | 45.08029 | 20.91215 | 34152 ft | 393 kts | 326° |
| 2026-04-29 17:15 | 45.13652 | 20.87058 | 34151 ft | 392 kts | 326° |
| 2026-04-29 17:15 | 45.18487 | 20.83477 | 34154 ft | 392 kts | 326° |
| 2026-04-29 17:16 | 45.22508 | 20.80492 | 34150 ft | 392 kts | 326° |
| 2026-04-29 17:16 | 45.27338 | 20.76900 | 34180 ft | 392 kts | 326° |
| 2026-04-29 17:17 | 45.32953 | 20.72717 | 34154 ft | 392 kts | 326° |
| 2026-04-29 17:17 | 45.37775 | 20.69118 | 34158 ft | 391 kts | 326° |
| 2026-04-29 17:18 | 45.41772 | 20.66128 | 34151 ft | 390 kts | 326° |
| 2026-04-29 17:18 | 45.46569 | 20.62534 | 34146 ft | 389 kts | 326° |
| 2026-04-29 17:19 | 45.52132 | 20.58356 | 34165 ft | 389 kts | 326° |
| 2026-04-29 17:19 | 45.53309 | 20.57471 | 34162 ft | 389 kts | 326° |
| 2026-04-29 17:20 | 45.57282 | 20.54480 | 34152 ft | 389 kts | 326° |
| 2026-04-29 17:20 | 45.62062 | 20.50877 | 34161 ft | 388 kts | 326° |
| 2026-04-29 17:21 | 45.66829 | 20.47276 | 34165 ft | 387 kts | 325° |
| 2026-04-29 17:21 | 45.71590 | 20.43671 | 34159 ft | 387 kts | 325° |
| 2026-04-29 17:22 | 45.76325 | 20.40080 | 34171 ft | 388 kts | 325° |
| 2026-04-29 17:22 | 45.81095 | 20.36454 | 34167 ft | 389 kts | 325° |
| 2026-04-29 17:23 | 45.85880 | 20.32811 | 34165 ft | 390 kts | 325° |
| 2026-04-29 17:23 | 45.90674 | 20.29153 | 34171 ft | 390 kts | 325° |
| 2026-04-29 17:24 | 45.95441 | 20.25510 | 34169 ft | 391 kts | 325° |
| 2026-04-29 17:24 | 45.96594 | 20.24627 | 34170 ft | 391 kts | 325° |
| 2026-04-29 17:25 | 46.01403 | 20.20941 | 34173 ft | 393 kts | 325° |
| 2026-04-29 17:25 | 46.06225 | 20.17238 | 34174 ft | 393 kts | 325° |
| 2026-04-29 17:26 | 46.11058 | 20.13521 | 34175 ft | 394 kts | 325° |
| 2026-04-29 17:26 | 46.15868 | 20.09833 | 34177 ft | 396 kts | 327° |
| 2026-04-29 17:27 | 46.21093 | 20.07026 | 34176 ft | 403 kts | 334° |
| 2026-04-29 17:27 | 46.26428 | 20.04463 | 34192 ft | 404 kts | 334° |
| 2026-04-29 17:28 | 46.31725 | 20.01896 | 34194 ft | 404 kts | 334° |
| 2026-04-29 17:28 | 46.37049 | 19.99291 | 34195 ft | 404 kts | 334° |
| 2026-04-29 17:29 | 46.42365 | 19.96678 | 34183 ft | 403 kts | 334° |
| 2026-04-29 17:29 | 46.43642 | 19.96049 | 34176 ft | 403 kts | 334° |
| 2026-04-29 17:30 | 46.48952 | 19.93428 | 34196 ft | 403 kts | 334° |
| 2026-04-29 17:30 | 46.54227 | 19.90818 | 34193 ft | 403 kts | 334° |
| 2026-04-29 17:31 | 46.59541 | 19.88186 | 34188 ft | 403 kts | 334° |
| 2026-04-29 17:31 | 46.64849 | 19.85551 | 34190 ft | 403 kts | 334° |
| 2026-04-29 17:32 | 46.70164 | 19.82906 | 34216 ft | 404 kts | 334° |
| 2026-04-29 17:32 | 46.75451 | 19.80269 | 34197 ft | 405 kts | 334° |
| 2026-04-29 17:33 | 46.80794 | 19.77599 | 34187 ft | 406 kts | 334° |
| 2026-04-29 17:33 | 46.86149 | 19.74917 | 34191 ft | 407 kts | 334° |
| 2026-04-29 17:34 | 46.91518 | 19.72224 | 34184 ft | 408 kts | 334° |
| 2026-04-29 17:34 | 46.92761 | 19.71599 | 34188 ft | 408 kts | 334° |
| 2026-04-29 17:35 | 47.00802 | 19.67553 | 34202 ft | 410 kts | 334° |
| 2026-04-29 17:36 | 47.06191 | 19.64834 | 34191 ft | 410 kts | 334° |
| 2026-04-29 17:36 | 47.11587 | 19.62106 | 34199 ft | 410 kts | 334° |
| 2026-04-29 17:37 | 47.16979 | 19.59374 | 34194 ft | 410 kts | 334° |
| 2026-04-29 17:37 | 47.22335 | 19.56654 | 34200 ft | 410 kts | 334° |
| 2026-04-29 17:38 | 47.27722 | 19.53912 | 34198 ft | 410 kts | 334° |
| 2026-04-29 17:38 | 47.33109 | 19.51164 | 34192 ft | 410 kts | 334° |
| 2026-04-29 17:39 | 47.38491 | 19.48413 | 34187 ft | 410 kts | 334° |
| 2026-04-29 17:39 | 47.41187 | 19.47032 | 34209 ft | 410 kts | 335° |
| 2026-04-29 17:40 | 47.45231 | 19.44958 | 34196 ft | 411 kts | 335° |
| 2026-04-29 17:40 | 47.50630 | 19.42184 | 34186 ft | 411 kts | 335° |
| 2026-04-29 17:41 | 47.56039 | 19.39400 | 34195 ft | 412 kts | 335° |
| 2026-04-29 17:41 | 47.61425 | 19.36621 | 34191 ft | 413 kts | 335° |
| 2026-04-29 17:42 | 47.66850 | 19.33817 | 34209 ft | 413 kts | 336° |
| 2026-04-29 17:42 | 47.72285 | 19.31000 | 34205 ft | 415 kts | 336° |
| 2026-04-29 17:43 | 47.77742 | 19.28165 | 34232 ft | 416 kts | 335° |
| 2026-04-29 17:43 | 47.83208 | 19.25320 | 34215 ft | 416 kts | 335° |
| 2026-04-29 17:44 | 47.88667 | 19.22472 | 34215 ft | 415 kts | 335° |
| 2026-04-29 17:44 | 47.91396 | 19.21044 | 34231 ft | 415 kts | 336° |
| 2026-04-29 17:45 | 47.95440 | 19.18928 | 34207 ft | 414 kts | 336° |
| 2026-04-29 17:45 | 47.98166 | 19.17500 | 33855 ft | 416 kts | 336° |
| 2026-04-29 17:45 | 48.00891 | 19.16071 | 33393 ft | 415 kts | 335° |
| 2026-04-29 17:45 | 48.03592 | 19.14587 | 32912 ft | 410 kts | 330° |
| 2026-04-29 17:46 | 48.05959 | 19.12356 | 32473 ft | 400 kts | 316° |
| 2026-04-29 17:46 | 48.07943 | 19.09486 | 32073 ft | 395 kts | 308° |
| 2026-04-29 17:46 | 48.09530 | 19.06179 | 31660 ft | 390 kts | 296° |
| 2026-04-29 17:46 | 48.10730 | 19.02548 | 31292 ft | 389 kts | 295° |
| 2026-04-29 17:47 | 48.11884 | 18.98949 | 30908 ft | 389 kts | 294° |
| 2026-04-29 17:47 | 48.13052 | 18.95299 | 30523 ft | 389 kts | 294° |
| 2026-04-29 17:47 | 48.14225 | 18.91651 | 30059 ft | 390 kts | 294° |
| 2026-04-29 17:47 | 48.15407 | 18.87990 | 29522 ft | 391 kts | 294° |
| 2026-04-29 17:48 | 48.16597 | 18.84319 | 28985 ft | 393 kts | 295° |
| 2026-04-29 17:48 | 48.17793 | 18.80634 | 28462 ft | 394 kts | 295° |
| 2026-04-29 17:48 | 48.18992 | 18.76943 | 27992 ft | 394 kts | 295° |
| 2026-04-29 17:48 | 48.20188 | 18.73257 | 27540 ft | 394 kts | 295° |
| 2026-04-29 17:49 | 48.21371 | 18.69608 | 27114 ft | 395 kts | 295° |
| 2026-04-29 17:49 | 48.22585 | 18.65858 | 26677 ft | 403 kts | 295° |
| 2026-04-29 17:49 | 48.23157 | 18.64086 | 26476 ft | 405 kts | 295° |
| 2026-04-29 17:50 | 48.24389 | 18.60273 | 26055 ft | 405 kts | 295° |
| 2026-04-29 17:50 | 48.25610 | 18.56486 | 25627 ft | 402 kts | 295° |
| 2026-04-29 17:50 | 48.26826 | 18.52711 | 25203 ft | 400 kts | 295° |
| 2026-04-29 17:50 | 48.28030 | 18.48962 | 24789 ft | 398 kts | 295° |
| 2026-04-29 17:51 | 48.29227 | 18.45237 | 24388 ft | 395 kts | 295° |
| 2026-04-29 17:51 | 48.30415 | 18.41530 | 23998 ft | 393 kts | 295° |
| 2026-04-29 17:51 | 48.31596 | 18.37840 | 23548 ft | 391 kts | 295° |
| 2026-04-29 17:51 | 48.32807 | 18.34261 | 23067 ft | 389 kts | 300° |
| 2026-04-29 17:52 | 48.34321 | 18.30901 | 22573 ft | 389 kts | 307° |
| 2026-04-29 17:52 | 48.35519 | 18.28835 | 22253 ft | 387 kts | 311° |
| 2026-04-29 17:52 | 48.37946 | 18.25027 | 21669 ft | 375 kts | 312° |
| 2026-04-29 17:52 | 48.39723 | 18.22231 | 21274 ft | 365 kts | 312° |
| 2026-04-29 17:53 | 48.41453 | 18.19494 | 20866 ft | 357 kts | 312° |
| 2026-04-29 17:53 | 48.43145 | 18.16806 | 20499 ft | 350 kts | 312° |
| 2026-04-29 17:53 | 48.44805 | 18.14159 | 20118 ft | 346 kts | 312° |
| 2026-04-29 17:53 | 48.46454 | 18.11522 | 19729 ft | 347 kts | 312° |
| 2026-04-29 17:54 | 48.48112 | 18.08866 | 19371 ft | 350 kts | 312° |
| 2026-04-29 17:54 | 48.49782 | 18.06186 | 19012 ft | 350 kts | 312° |
| 2026-04-29 17:54 | 48.50500 | 18.05035 | 18856 ft | 349 kts | 312° |
| 2026-04-29 17:55 | 48.52155 | 18.02376 | 18494 ft | 347 kts | 313° |
| 2026-04-29 17:55 | 48.53802 | 17.99728 | 18051 ft | 346 kts | 313° |
| 2026-04-29 17:55 | 48.55443 | 17.97087 | 17668 ft | 345 kts | 313° |
| 2026-04-29 17:55 | 48.57076 | 17.94457 | 17264 ft | 343 kts | 313° |
| 2026-04-29 17:56 | 48.58704 | 17.91832 | 16867 ft | 341 kts | 313° |
| 2026-04-29 17:56 | 48.60322 | 17.89219 | 16517 ft | 339 kts | 313° |
| 2026-04-29 17:56 | 48.61908 | 17.86657 | 16184 ft | 337 kts | 313° |
| 2026-04-29 17:56 | 48.63504 | 17.84075 | 15842 ft | 335 kts | 313° |
| 2026-04-29 17:57 | 48.65090 | 17.81507 | 15509 ft | 334 kts | 313° |
| 2026-04-29 17:57 | 48.66669 | 17.78947 | 15200 ft | 332 kts | 313° |
| 2026-04-29 17:57 | 48.68242 | 17.76396 | 14879 ft | 331 kts | 313° |
| 2026-04-29 17:57 | 48.69812 | 17.73847 | 14561 ft | 330 kts | 313° |
| 2026-04-29 17:58 | 48.71376 | 17.71304 | 14247 ft | 330 kts | 313° |
| 2026-04-29 17:58 | 48.72940 | 17.68758 | 13915 ft | 330 kts | 313° |
| 2026-04-29 17:58 | 48.74499 | 17.66219 | 13547 ft | 329 kts | 313° |
| 2026-04-29 17:58 | 48.76052 | 17.63686 | 13223 ft | 328 kts | 313° |
| 2026-04-29 17:59 | 48.77602 | 17.61157 | 12923 ft | 326 kts | 313° |
| 2026-04-29 17:59 | 48.79141 | 17.58644 | 12659 ft | 324 kts | 313° |
| 2026-04-29 17:59 | 48.79891 | 17.57418 | 12529 ft | 324 kts | 313° |
| 2026-04-29 18:00 | 48.81398 | 17.54952 | 12268 ft | 323 kts | 314° |
| 2026-04-29 18:00 | 48.82935 | 17.52478 | 12018 ft | 322 kts | 315° |
| 2026-04-29 18:00 | 48.84531 | 17.50098 | 11751 ft | 322 kts | 316° |
| 2026-04-29 18:00 | 48.86140 | 17.47747 | 11517 ft | 321 kts | 317° |
| 2026-04-29 18:01 | 48.87753 | 17.45388 | 11255 ft | 322 kts | 317° |
| 2026-04-29 18:01 | 48.89367 | 17.43014 | 11012 ft | 323 kts | 317° |
| 2026-04-29 18:01 | 48.90979 | 17.40629 | 10768 ft | 323 kts | 317° |
| 2026-04-29 18:01 | 48.92588 | 17.38241 | 10546 ft | 324 kts | 317° |
| 2026-04-29 18:02 | 48.94192 | 17.35855 | 10369 ft | 320 kts | 317° |
| 2026-04-29 18:02 | 48.95722 | 17.33571 | 10314 ft | 305 kts | 317° |
| 2026-04-29 18:02 | 48.97201 | 17.31363 | 10303 ft | 290 kts | 317° |
| 2026-04-29 18:02 | 48.98559 | 17.29205 | 10306 ft | 276 kts | 312° |
| 2026-04-29 18:03 | 48.99687 | 17.26905 | 10306 ft | 268 kts | 308° |
| 2026-04-29 18:03 | 49.00749 | 17.24576 | 10312 ft | 268 kts | 308° |
| 2026-04-29 18:03 | 49.01809 | 17.22233 | 10323 ft | 270 kts | 308° |
| 2026-04-29 18:03 | 49.02878 | 17.19881 | 10332 ft | 270 kts | 308° |
| 2026-04-29 18:04 | 49.03957 | 17.17525 | 10324 ft | 271 kts | 308° |
| 2026-04-29 18:04 | 49.05038 | 17.15175 | 10338 ft | 271 kts | 308° |
| 2026-04-29 18:04 | 49.06124 | 17.12820 | 10331 ft | 271 kts | 308° |
| 2026-04-29 18:04 | 49.07210 | 17.10473 | 10329 ft | 271 kts | 308° |
| 2026-04-29 18:05 | 49.08295 | 17.08129 | 10332 ft | 271 kts | 308° |
| 2026-04-29 18:05 | 49.09382 | 17.05782 | 10340 ft | 270 kts | 308° |
| 2026-04-29 18:05 | 49.10465 | 17.03444 | 10343 ft | 270 kts | 308° |
| 2026-04-29 18:05 | 49.11537 | 17.01128 | 10328 ft | 271 kts | 308° |
| 2026-04-29 18:06 | 49.12623 | 16.98781 | 10328 ft | 270 kts | 308° |
| 2026-04-29 18:06 | 49.13701 | 16.96449 | 10332 ft | 269 kts | 308° |
| 2026-04-29 18:06 | 49.14775 | 16.94125 | 10332 ft | 268 kts | 308° |
| 2026-04-29 18:06 | 49.15848 | 16.91799 | 10329 ft | 267 kts | 308° |
| 2026-04-29 18:07 | 49.16928 | 16.89459 | 10038 ft | 272 kts | 308° |
| 2026-04-29 18:07 | 49.18023 | 16.87083 | 9797 ft | 274 kts | 309° |
| 2026-04-29 18:07 | 49.19124 | 16.84692 | 9462 ft | 275 kts | 309° |
| 2026-04-29 18:07 | 49.20221 | 16.82309 | 9143 ft | 273 kts | 309° |
| 2026-04-29 18:08 | 49.21294 | 16.79975 | 8807 ft | 271 kts | 309° |
| 2026-04-29 18:08 | 49.22371 | 16.77621 | 8501 ft | 270 kts | 308° |
| 2026-04-29 18:08 | 49.23093 | 16.74951 | 8160 ft | 279 kts | 283° |
| 2026-04-29 18:08 | 49.23328 | 16.72013 | 7891 ft | 278 kts | 281° |
| 2026-04-29 18:09 | 49.23567 | 16.69082 | 7570 ft | 278 kts | 282° |
| 2026-04-29 18:09 | 49.23815 | 16.66155 | 7272 ft | 276 kts | 281° |
| 2026-04-29 18:09 | 49.24144 | 16.63290 | 7025 ft | 270 kts | 291° |
| 2026-04-29 18:09 | 49.24706 | 16.60578 | 6798 ft | 265 kts | 293° |
| 2026-04-29 18:10 | 49.25291 | 16.57905 | 6562 ft | 267 kts | 292° |
| 2026-04-29 18:10 | 49.25870 | 16.55185 | 6333 ft | 270 kts | 292° |
| 2026-04-29 18:10 | 49.26436 | 16.52462 | 6074 ft | 267 kts | 292° |
| 2026-04-29 18:10 | 49.26990 | 16.49766 | 5818 ft | 264 kts | 291° |
| 2026-04-29 18:11 | 49.27539 | 16.47087 | 5514 ft | 264 kts | 291° |
| 2026-04-29 18:11 | 49.27951 | 16.44344 | 5179 ft | 269 kts | 274° |
| 2026-04-29 18:11 | 49.27488 | 16.41573 | 4924 ft | 274 kts | 240° |
| 2026-04-29 18:11 | 49.26236 | 16.39457 | 4678 ft | 272 kts | 219° |
| 2026-04-29 18:12 | 49.24751 | 16.37678 | 4403 ft | 270 kts | 212° |
| 2026-04-29 18:12 | 49.23031 | 16.36742 | 4148 ft | 258 kts | 178° |
| 2026-04-29 18:12 | 49.21321 | 16.37087 | 3927 ft | 242 kts | 159° |
| 2026-04-29 18:12 | 49.19845 | 16.38103 | 3662 ft | 226 kts | 146° |
| 2026-04-29 18:13 | 49.18522 | 16.39305 | 3388 ft | 215 kts | 138° |
| 2026-04-29 18:13 | 49.17694 | 16.41013 | 3084 ft | 191 kts | 96° |
| 2026-04-29 18:13 | 49.17550 | 16.42954 | 3039 ft | 184 kts | 93° |
| 2026-04-29 18:13 | 49.17284 | 16.44878 | 3012 ft | 184 kts | 95° |
| 2026-04-29 18:14 | 49.17096 | 16.46784 | 3007 ft | 180 kts | 92° |
| 2026-04-29 18:14 | 49.16934 | 16.48690 | 2994 ft | 181 kts | 91° |
| 2026-04-29 18:14 | 49.16774 | 16.50515 | 2971 ft | 166 kts | 91° |
| 2026-04-29 18:14 | 49.16624 | 16.52227 | 2764 ft | 161 kts | 91° |
| 2026-04-29 18:15 | 49.16478 | 16.53901 | 2563 ft | 156 kts | 91° |
| 2026-04-29 18:15 | 49.16339 | 16.55480 | 2358 ft | 144 kts | 91° |
| 2026-04-29 18:15 | 49.16211 | 16.56940 | 2189 ft | 139 kts | 91° |
| 2026-04-29 18:15 | 49.16086 | 16.58393 | 2053 ft | 140 kts | 88° |
| 2026-04-29 18:16 | 49.15955 | 16.59904 | 1821 ft | 144 kts | 91° |
| 2026-04-29 18:16 | 49.15822 | 16.61409 | 1559 ft | 143 kts | 91° |
| 2026-04-29 18:16 | 49.15700 | 16.62913 | 1375 ft | 143 kts | 92° |
| 2026-04-29 18:16 | 49.15563 | 16.64433 | 1209 ft | 145 kts | 93° |
| 2026-04-29 18:17 | 49.15427 | 16.65972 | 1045 ft | 147 kts | 93° |
| 2026-04-29 18:17 | 49.15296 | 16.67506 | 848 ft | 144 kts | 91° |
| 2026-04-29 18:17 | 49.15175 | 16.68942 | 781 ft | 118 kts | 101° |
| 2026-04-29 18:17 | 49.15092 | 16.69862 | 780 ft | 57 kts | 97° |
| 2026-04-29 18:18 | 49.15058 | 16.70270 | 778 ft | 22 kts | 97° |
| 2026-04-29 18:18 | 49.15047 | 16.70411 | 778 ft | 9 kts | 97° |
| 2026-04-29 18:18 | 49.15048 | 16.70456 | 779 ft | 3 kts | 70° |
| 2026-04-29 18:18 | 49.15079 | 16.70485 | 780 ft | 7 kts | 11° |
| 2026-04-29 18:19 | 49.15127 | 16.70495 | 784 ft | 7 kts | 9° |
| 2026-04-29 18:19 | 49.15152 | 16.70501 | 785 ft | 2 kts | 8° |
| 2026-04-29 18:19 | 49.15166 | 16.70504 | 786 ft | 2 kts | 7° |
| 2026-04-29 18:19 | 49.15180 | 16.70507 | 786 ft | 3 kts | 7° |
| 2026-04-29 18:20 | 49.15213 | 16.70502 | 784 ft | 7 kts | 330° |
| 2026-04-29 18:20 | 49.15234 | 16.70418 | 784 ft | 9 kts | 278° |
| 2026-04-29 18:20 | 49.15243 | 16.70320 | 784 ft | 9 kts | 277° |
| 2026-04-29 18:20 | 49.15251 | 16.70224 | 784 ft | 9 kts | 277° |
| 2026-04-29 18:21 | 49.15259 | 16.70127 | 784 ft | 9 kts | 277° |
| 2026-04-29 18:21 | 49.15268 | 16.70029 | 784 ft | 9 kts | 277° |
| 2026-04-29 18:21 | 49.15276 | 16.69933 | 784 ft | 9 kts | 277° |
| 2026-04-29 18:21 | 49.15283 | 16.69841 | 784 ft | 9 kts | 277° |
| 2026-04-29 18:22 | 49.15290 | 16.69750 | 784 ft | 8 kts | 277° |
| 2026-04-29 18:22 | 49.15298 | 16.69663 | 784 ft | 8 kts | 278° |
| 2026-04-29 18:22 | 49.15306 | 16.69578 | 784 ft | 8 kts | 277° |
| 2026-04-29 18:22 | 49.15314 | 16.69494 | 784 ft | 8 kts | 279° |
| 2026-04-29 18:23 | 49.15322 | 16.69411 | 784 ft | 8 kts | 278° |
| 2026-04-29 18:23 | 49.15344 | 16.69339 | 784 ft | 8 kts | 323° |
| 2026-04-29 18:23 | 49.15378 | 16.69297 | 784 ft | 6 kts | 294° |
| 2026-04-29 18:23 | 49.15385 | 16.69245 | 784 ft | 4 kts | 279° |
| 2026-04-29 18:24 | 49.15388 | 16.69212 | 784 ft | 1 kts | 276° |
| 2026-04-29 18:24 | 49.15383 | 16.69208 | 784 ft | 1 kts | 214° |
| 2026-04-29 18:24 | 49.15379 | 16.69208 | 784 ft | 0 kts | 186° |